Time;durP1;ratioP1;P1;durP2;ratioP2;P2;SDS_P1;SDS_P2;PMS_P1;PMS_P2;Temp;Humidity;BMP_temperature;BMP_pressure;BME280_temperature;BME280_humidity;BME280_pressure;Samples;Min_cycle;Max_cycle;Signal;HPM_P1;HPM_P2
2021/03/20 00:01:54;;;;;;;;;;;4.80;59.30;;;;;;5013758;28;19932;-70
2021/03/20 00:04:21;;;;;;;;;;;4.80;59.30;;;;;;5014170;28;19976;-71
2021/03/20 00:06:50;;;;;;;;;;;4.80;59.40;;;;;;5023941;28;20008;-70
2021/03/20 00:09:18;;;;;;;;;;;4.80;59.40;;;;;;5020678;28;19925;-70
2021/03/20 00:11:45;;;;;;;;;;;4.80;59.50;;;;;;5013836;28;19929;-70
2021/03/20 00:14:13;;;;;;;;;;;4.80;59.60;;;;;;5014045;28;19933;-70
2021/03/20 00:16:39;;;;;;;;;;;4.80;59.60;;;;;;5014231;28;19926;-70
2021/03/20 00:19:06;;;;;;;;;;;4.70;59.60;;;;;;5013976;28;20386;-70
2021/03/20 00:21:32;;;;;;;;;;;4.70;59.70;;;;;;5012263;28;20259;-70
2021/03/20 00:24:00;;;;;;;;;;;4.70;60.40;;;;;;5013823;28;19993;-70
2021/03/20 00:26:26;;;;;;;;;;;4.70;59.80;;;;;;5013940;28;20370;-70
2021/03/20 00:28:53;;;;;;;;;;;4.70;59.80;;;;;;5013706;28;19987;-70
2021/03/20 00:31:20;;;;;;;;;;;4.70;59.80;;;;;;5014119;28;20374;-70
2021/03/20 00:33:46;;;;;;;;;;;4.60;59.80;;;;;;5013417;28;20374;-70
2021/03/20 00:36:14;;;;;;;;;;;4.60;59.90;;;;;;5018625;28;20047;-70
2021/03/20 00:38:41;;;;;;;;;;;4.60;59.90;;;;;;5027651;28;19937;-70
2021/03/20 00:41:09;;;;;;;;;;;4.60;60.00;;;;;;5013692;28;19933;-70
2021/03/20 00:43:36;;;;;;;;;;;4.60;60.10;;;;;;5013412;28;19925;-70
2021/03/20 00:46:04;;;;;;;;;;;4.60;60.20;;;;;;5013810;28;20290;-70
2021/03/20 00:48:31;;;;;;;;;;;4.60;60.20;;;;;;5011801;28;19963;-70
2021/03/20 00:50:57;;;;;;;;;;;4.60;60.20;;;;;;5013551;28;20378;-70
2021/03/20 00:53:24;;;;;;;;;;;4.50;60.10;;;;;;5013090;28;19926;-70
2021/03/20 00:55:50;;;;;;;;;;;4.50;60.20;;;;;;5013498;28;19952;-70
2021/03/20 00:58:18;;;;;;;;;;;4.50;60.30;;;;;;5013243;28;20390;-71
2021/03/20 01:00:45;;;;;;;;;;;4.60;60.50;;;;;;4994092;28;19988;-70
2021/03/20 01:03:12;;;;;;;;;;;4.60;60.60;;;;;;5000919;28;19929;-70
2021/03/20 01:05:38;;;;;;;;;;;4.60;60.70;;;;;;5012726;28;19925;-70
2021/03/20 01:08:05;;;;;;;;;;;4.60;60.70;;;;;;5032133;28;19936;-71
2021/03/20 01:10:31;;;;;;;;;;;4.70;60.80;;;;;;5015082;28;19933;-70
2021/03/20 01:12:58;;;;;;;;;;;4.70;60.70;;;;;;5012568;28;19933;-70
2021/03/20 01:15:25;;;;;;;;;;;4.80;60.70;;;;;;5011827;28;19925;-70
2021/03/20 01:17:51;;;;;;;;;;;4.80;60.70;;;;;;5013500;28;20012;-71
2021/03/20 01:20:21;;;;;;;;;;;4.80;60.60;;;;;;5011872;28;19929;-71
2021/03/20 01:22:47;;;;;;;;;;;4.80;60.60;;;;;;5012779;28;19937;-70
2021/03/20 01:25:14;;;;;;;;;;;4.80;60.50;;;;;;5012585;28;19925;-70
2021/03/20 01:27:40;;;;;;;;;;;4.80;60.40;;;;;;5012627;28;19936;-70
2021/03/20 01:30:08;;;;;;;;;;;4.80;60.40;;;;;;5013290;28;19926;-70
2021/03/20 01:32:35;;;;;;;;;;;4.80;60.50;;;;;;5013377;28;19926;-70
2021/03/20 01:35:02;;;;;;;;;;;4.90;60.60;;;;;;5013016;28;19980;-70
2021/03/20 01:37:28;;;;;;;;;;;4.90;60.50;;;;;;5024479;28;19932;-70
2021/03/20 01:39:55;;;;;;;;;;;4.90;60.50;;;;;;5011385;28;20157;-70
2021/03/20 01:42:21;;;;;;;;;;;4.90;60.40;;;;;;5013056;28;20393;-70
2021/03/20 01:45:02;;;;;;;;;;;5.00;60.40;;;;;;5012996;28;19925;-70
2021/03/20 01:47:29;;;;;;;;;;;5.00;60.10;;;;;;5012384;28;19980;-70
2021/03/20 01:49:58;;;;;;;;;;;5.10;60.20;;;;;;5012404;28;19925;-70
2021/03/20 01:52:27;;;;;;;;;;;5.10;60.00;;;;;;5013115;28;19933;-70
2021/03/20 01:54:56;;;;;;;;;;;5.10;60.00;;;;;;5012778;28;19980;-71
2021/03/20 01:57:26;;;;;;;;;;;5.10;60.10;;;;;;5012611;28;20288;-70
2021/03/20 01:59:53;;;;;;;;;;;5.10;60.00;;;;;;5012681;28;19926;-70
2021/03/20 02:02:19;;;;;;;;;;;5.10;60.00;;;;;;5013014;28;19952;-70
2021/03/20 02:04:45;;;;;;;;;;;5.20;60.00;;;;;;5012498;28;19925;-69
2021/03/20 02:07:13;;;;;;;;;;;5.20;60.00;;;;;;5021481;28;19932;-69
2021/03/20 02:09:39;;;;;;;;;;;5.20;60.00;;;;;;5013970;28;19930;-70
2021/03/20 02:12:11;;;;;;;;;;;5.20;60.00;;;;;;5016496;28;19932;-70
2021/03/20 02:14:47;;;;;;;;;;;5.30;60.00;;;;;;5016404;28;20021;-70
2021/03/20 02:17:19;;;;;;;;;;;5.30;59.90;;;;;;5016130;28;19930;-70
2021/03/20 02:20:04;;;;;;;;;;;5.30;59.80;;;;;;5016108;28;20297;-70
2021/03/20 02:22:48;;;;;;;;;;;5.30;59.80;;;;;;4996792;28;19940;-70
2021/03/20 02:25:32;;;;;;;;;;;5.30;59.80;;;;;;4999061;28;19925;-70
2021/03/20 02:28:16;;;;;;;;;;;5.30;59.80;;;;;;5016215;28;20386;-70
2021/03/20 02:31:01;;;;;;;;;;;5.40;59.80;;;;;;4991820;28;19956;-70
2021/03/20 02:33:32;;;;;;;;;;;5.40;59.80;;;;;;4994923;28;20338;-70
2021/03/20 02:36:05;;;;;;;;;;;5.50;59.60;;;;;;4998762;28;19933;-70
2021/03/20 02:38:34;;;;;;;;;;;5.60;59.70;;;;;;5029017;28;19925;-70
2021/03/20 02:41:07;;;;;;;;;;;5.60;59.60;;;;;;5015302;28;19925;-70
2021/03/20 02:43:36;;;;;;;;;;;5.60;59.60;;;;;;5016005;28;19926;-70
2021/03/20 02:46:05;;;;;;;;;;;5.60;59.30;;;;;;5015934;28;19925;-70
2021/03/20 02:48:36;;;;;;;;;;;5.70;59.30;;;;;;5015462;28;19929;-71
2021/03/20 02:51:05;;;;;;;;;;;5.70;59.20;;;;;;5015354;28;19926;-71
2021/03/20 02:53:35;;;;;;;;;;;5.80;59.10;;;;;;5015954;28;19929;-71
2021/03/20 02:56:02;;;;;;;;;;;5.80;59.10;;;;;;5015414;28;19972;-70
2021/03/20 02:58:31;;;;;;;;;;;5.80;59.00;;;;;;5015527;28;20404;-70
2021/03/20 03:00:59;;;;;;;;;;;5.70;58.70;;;;;;5013774;28;19925;-70
2021/03/20 03:03:28;;;;;;;;;;;5.70;58.70;;;;;;5015409;28;19936;-70
2021/03/20 03:05:57;;;;;;;;;;;5.60;58.60;;;;;;5015561;28;19952;-70
2021/03/20 03:08:25;;;;;;;;;;;5.70;59.00;;;;;;5017339;28;19926;-70
2021/03/20 03:10:54;;;;;;;;;;;5.70;59.10;;;;;;5015317;28;19926;-70
2021/03/20 03:13:22;;;;;;;;;;;5.70;59.10;;;;;;5015114;28;20011;-70
2021/03/20 03:15:52;;;;;;;;;;;5.70;59.10;;;;;;5015445;28;20012;-70
2021/03/20 03:18:22;;;;;;;;;;;5.70;59.00;;;;;;5015124;28;19979;-70
2021/03/20 03:20:50;;;;;;;;;;;5.70;59.00;;;;;;5014993;28;19925;-70
2021/03/20 03:23:19;;;;;;;;;;;5.70;58.90;;;;;;5014765;28;19968;-70
2021/03/20 03:25:47;;;;;;;;;;;5.70;58.80;;;;;;5015021;28;19925;-70
2021/03/20 03:28:15;;;;;;;;;;;5.70;58.70;;;;;;5013427;28;20397;-70
2021/03/20 03:30:42;;;;;;;;;;;5.80;58.80;;;;;;5015138;28;19925;-70
2021/03/20 03:33:10;;;;;;;;;;;5.80;58.80;;;;;;5014149;28;19937;-70
2021/03/20 03:35:37;;;;;;;;;;;5.80;58.70;;;;;;5015245;28;19977;-70
2021/03/20 03:38:06;;;;;;;;;;;5.80;58.90;;;;;;5023982;28;19925;-70
2021/03/20 03:40:38;;;;;;;;;;;5.80;58.90;;;;;;5015088;28;20345;-70
2021/03/20 03:43:04;;;;;;;;;;;5.80;58.70;;;;;;5014129;28;19933;-70
2021/03/20 03:45:31;;;;;;;;;;;5.80;58.90;;;;;;5014227;28;19929;-70
2021/03/20 03:47:58;;;;;;;;;;;5.80;59.10;;;;;;5014581;28;20433;-71
2021/03/20 03:50:25;;;;;;;;;;;5.80;59.10;;;;;;5014813;28;20378;-70
2021/03/20 03:52:52;;;;;;;;;;;5.80;59.00;;;;;;5014472;28;19926;-70
2021/03/20 03:55:19;;;;;;;;;;;5.80;58.90;;;;;;5012618;28;19959;-70
2021/03/20 03:57:51;;;;;;;;;;;5.80;59.00;;;;;;5014357;28;19932;-70
2021/03/20 04:00:22;;;;;;;;;;;5.80;59.00;;;;;;5014768;28;20268;-70
2021/03/20 04:02:58;;;;;;;;;;;5.80;59.00;;;;;;5014312;28;19932;-70
2021/03/20 04:05:29;;;;;;;;;;;5.80;59.10;;;;;;5014103;28;19932;-70
2021/03/20 04:08:01;;;;;;;;;;;5.80;59.20;;;;;;5024652;28;19933;-70
2021/03/20 04:10:29;;;;;;;;;;;5.80;59.20;;;;;;5014554;28;19925;-70
2021/03/20 04:13:00;;;;;;;;;;;5.80;59.10;;;;;;5014176;28;19980;-70
2021/03/20 04:15:32;;;;;;;;;;;5.80;59.20;;;;;;5013840;28;19930;-70
2021/03/20 04:18:02;;;;;;;;;;;5.80;59.20;;;;;;5014413;28;19925;-70
2021/03/20 04:20:32;;;;;;;;;;;5.90;59.20;;;;;;5012393;28;20281;-70
2021/03/20 04:23:00;;;;;;;;;;;5.80;59.00;;;;;;5014088;28;19933;-70
2021/03/20 04:25:30;;;;;;;;;;;5.80;59.00;;;;;;5013553;28;19926;-70
2021/03/20 04:28:01;;;;;;;;;;;5.80;59.10;;;;;;5014034;28;19980;-71
2021/03/20 04:30:28;;;;;;;;;;;5.80;59.00;;;;;;5012704;28;19926;-71
2021/03/20 04:32:58;;;;;;;;;;;5.90;59.10;;;;;;5013374;28;19929;-70
2021/03/20 04:35:26;;;;;;;;;;;5.80;59.00;;;;;;5013970;28;20352;-70
2021/03/20 04:37:54;;;;;;;;;;;5.90;58.90;;;;;;5030019;28;19987;-70
2021/03/20 04:40:27;;;;;;;;;;;5.80;59.10;;;;;;5014136;28;19929;-70
2021/03/20 04:42:54;;;;;;;;;;;5.80;59.00;;;;;;5013057;28;19926;-70
2021/03/20 04:45:31;;;;;;;;;;;5.80;59.10;;;;;;5013291;28;19930;-69
2021/03/20 04:48:00;;;;;;;;;;;5.90;59.20;;;;;;5011622;28;19932;-71
2021/03/20 04:50:27;;;;;;;;;;;5.80;59.10;;;;;;5013694;28;20024;-71
2021/03/20 04:52:55;;;;;;;;;;;5.90;59.10;;;;;;5013949;28;20374;-71
2021/03/20 04:55:21;;;;;;;;;;;5.80;59.00;;;;;;5012785;28;19933;-70
2021/03/20 04:57:50;;;;;;;;;;;5.90;59.10;;;;;;5012696;28;20370;-70
2021/03/20 05:00:21;;;;;;;;;;;5.80;59.10;;;;;;5012466;28;19926;-70
2021/03/20 05:02:50;;;;;;;;;;;5.80;59.10;;;;;;5011494;28;20392;-71
2021/03/20 05:05:19;;;;;;;;;;;5.80;59.10;;;;;;5009975;28;19930;-71
2021/03/20 05:07:46;;;;;;;;;;;5.70;59.00;;;;;;5013118;28;20370;-71
2021/03/20 05:10:18;;;;;;;;;;;5.60;59.10;;;;;;5010344;28;20385;-71
2021/03/20 05:12:47;;;;;;;;;;;5.60;59.20;;;;;;5006520;28;20286;-71
2021/03/20 05:15:23;;;;;;;;;;;5.50;59.30;;;;;;5011226;28;19925;-71
2021/03/20 05:17:50;;;;;;;;;;;5.50;59.60;;;;;;5012667;28;19926;-71
2021/03/20 05:20:17;;;;;;;;;;;5.50;59.90;;;;;;5012985;28;19925;-70
2021/03/20 05:22:43;;;;;;;;;;;5.50;59.90;;;;;;5013197;28;19926;-70
2021/03/20 05:25:12;;;;;;;;;;;5.40;59.90;;;;;;5012913;28;19971;-70
2021/03/20 05:27:39;;;;;;;;;;;5.40;59.80;;;;;;4999406;28;20031;-70
2021/03/20 05:30:05;;;;;;;;;;;5.40;59.80;;;;;;5012983;28;20333;-70
2021/03/20 05:32:34;;;;;;;;;;;5.50;60.00;;;;;;5012808;28;19948;-70
2021/03/20 05:35:03;;;;;;;;;;;5.50;59.80;;;;;;5011740;28;19952;-70
2021/03/20 05:37:31;;;;;;;;;;;5.50;59.70;;;;;;5025473;28;19995;-70
2021/03/20 05:39:57;;;;;;;;;;;5.50;59.90;;;;;;5011945;28;19988;-70
2021/03/20 05:42:32;;;;;;;;;;;5.50;59.90;;;;;;5011619;28;20382;-70
2021/03/20 05:45:05;;;;;;;;;;;5.50;59.90;;;;;;5015692;28;19957;-70
2021/03/20 05:47:34;;;;;;;;;;;5.50;60.10;;;;;;5016982;28;19926;-70
2021/03/20 05:50:08;;;;;;;;;;;5.40;59.80;;;;;;5001039;28;19926;-70
2021/03/20 05:52:51;;;;;;;;;;;5.40;59.90;;;;;;5007128;28;19926;-70
2021/03/20 05:55:24;;;;;;;;;;;5.40;59.90;;;;;;5015095;28;19925;-70
2021/03/20 05:57:54;;;;;;;;;;;5.40;59.90;;;;;;5013783;28;19925;-70
2021/03/20 06:00:24;;;;;;;;;;;5.40;59.80;;;;;;5016695;28;19929;-70
2021/03/20 06:03:07;;;;;;;;;;;5.40;59.90;;;;;;5016745;28;19930;-70
2021/03/20 06:05:43;;;;;;;;;;;5.40;60.00;;;;;;5016420;28;19937;-70
2021/03/20 06:08:17;;;;;;;;;;;5.40;60.00;;;;;;5019211;28;19976;-70
2021/03/20 06:10:48;;;;;;;;;;;5.40;60.10;;;;;;4997610;28;19940;-70
2021/03/20 06:13:32;;;;;;;;;;;5.40;60.30;;;;;;4996824;28;19933;-70
2021/03/20 06:16:04;;;;;;;;;;;5.40;60.10;;;;;;4988112;28;19949;-70
2021/03/20 06:18:48;;;;;;;;;;;5.50;60.00;;;;;;4996251;28;20343;-70
2021/03/20 06:21:19;;;;;;;;;;;5.50;60.10;;;;;;4991250;28;19926;-70
2021/03/20 06:24:03;;;;;;;;;;;5.60;60.00;;;;;;4995832;28;19930;-70
2021/03/20 06:26:31;;;;;;;;;;;5.60;60.00;;;;;;4994371;28;19932;-70
2021/03/20 06:28:59;;;;;;;;;;;5.60;59.50;;;;;;4995972;28;19926;-70
2021/03/20 06:31:27;;;;;;;;;;;5.60;59.00;;;;;;4995504;28;19930;-70
2021/03/20 06:33:54;;;;;;;;;;;5.60;59.10;;;;;;4994727;28;20291;-70
2021/03/20 06:36:25;;;;;;;;;;;5.60;58.90;;;;;;4996596;28;19926;-70
2021/03/20 06:38:57;;;;;;;;;;;5.60;58.80;;;;;;4995553;28;19925;-70
2021/03/20 06:41:27;;;;;;;;;;;5.60;58.40;;;;;;4992072;28;19926;-70
2021/03/20 06:43:55;;;;;;;;;;;5.60;58.30;;;;;;4994462;28;20276;-70
2021/03/20 06:46:22;;;;;;;;;;;5.60;58.20;;;;;;4996365;28;19933;-70
2021/03/20 06:48:49;;;;;;;;;;;5.60;58.10;;;;;;4989779;28;21131;-70
2021/03/20 06:51:15;;;;;;;;;;;5.60;57.90;;;;;;4996042;28;19941;-70
2021/03/20 06:53:45;;;;;;;;;;;5.60;57.60;;;;;;4996058;28;20379;-70
2021/03/20 06:56:12;;;;;;;;;;;5.70;57.70;;;;;;4995554;28;19926;-70
2021/03/20 06:58:40;;;;;;;;;;;5.70;57.10;;;;;;4994472;28;20445;-70
2021/03/20 07:01:19;;;;;;;;;;;5.70;56.70;;;;;;4985961;28;19926;-70
2021/03/20 07:03:50;;;;;;;;;;;5.70;56.00;;;;;;4984238;28;19927;-70
2021/03/20 07:06:20;;;;;;;;;;;5.80;55.90;;;;;;4983251;28;19926;-70
2021/03/20 07:08:51;;;;;;;;;;;5.80;55.70;;;;;;5006317;28;19979;-70
2021/03/20 07:11:20;;;;;;;;;;;5.80;55.00;;;;;;5012945;28;19933;-70
2021/03/20 07:13:49;;;;;;;;;;;5.80;54.80;;;;;;5014193;28;20015;-70
2021/03/20 07:16:17;;;;;;;;;;;5.90;54.50;;;;;;5015201;28;19929;-70
2021/03/20 07:18:45;;;;;;;;;;;5.90;53.80;;;;;;5014998;28;19934;-70
2021/03/20 07:21:26;;;;;;;;;;;5.90;53.50;;;;;;5014779;28;19984;-70
2021/03/20 07:23:54;;;;;;;;;;;6.00;53.30;;;;;;5012540;28;19933;-70
2021/03/20 07:26:21;;;;;;;;;;;6.00;53.10;;;;;;5015062;28;19952;-70
2021/03/20 07:28:49;;;;;;;;;;;6.00;52.70;;;;;;5009142;28;19933;-70
2021/03/20 07:31:15;;;;;;;;;;;6.10;52.80;;;;;;5012873;28;19936;-71
2021/03/20 07:33:43;;;;;;;;;;;6.10;52.60;;;;;;5015085;28;19995;-70
2021/03/20 07:36:17;;;;;;;;;;;6.20;52.40;;;;;;5016441;28;20302;-70
2021/03/20 07:38:44;;;;;;;;;;;6.30;52.40;;;;;;5015422;28;20394;-70
2021/03/20 07:41:13;;;;;;;;;;;6.30;52.30;;;;;;5014381;28;20370;-70
2021/03/20 07:43:40;;;;;;;;;;;6.40;52.40;;;;;;5013976;28;19926;-70
2021/03/20 07:46:13;;;;;;;;;;;6.60;52.20;;;;;;5014052;28;19926;-70
2021/03/20 07:48:39;;;;;;;;;;;6.70;51.90;;;;;;5017132;28;19926;-70
2021/03/20 07:51:07;;;;;;;;;;;6.80;50.70;;;;;;5013446;28;19930;-70
2021/03/20 07:53:39;;;;;;;;;;;6.80;50.00;;;;;;5012915;28;19933;-70
2021/03/20 07:56:07;;;;;;;;;;;6.90;50.00;;;;;;5014749;28;20012;-70
2021/03/20 07:58:42;;;;;;;;;;;7.00;49.80;;;;;;5014205;28;19932;-70
2021/03/20 08:01:25;;;;;;;;;;;7.10;49.40;;;;;;5014182;28;19988;-70
2021/03/20 08:03:54;;;;;;;;;;;7.20;48.50;;;;;;5014774;28;19929;-71
2021/03/20 08:06:21;;;;;;;;;;;7.30;48.70;;;;;;5012656;28;20008;-70
2021/03/20 08:08:48;;;;;;;;;;;7.50;48.70;;;;;;5012784;28;20310;-70
2021/03/20 08:11:26;;;;;;;;;;;7.70;47.90;;;;;;5014285;28;20337;-70
2021/03/20 08:13:54;;;;;;;;;;;7.70;47.00;;;;;;5013741;28;20501;-69
2021/03/20 08:16:23;;;;;;;;;;;7.80;46.80;;;;;;5014053;28;20329;-70
2021/03/20 08:18:52;;;;;;;;;;;7.70;45.60;;;;;;5013542;28;20016;-70
2021/03/20 08:21:37;;;;;;;;;;;7.60;45.60;;;;;;5012196;28;19926;-70
2021/03/20 08:24:24;;;;;;;;;;;7.60;45.10;;;;;;5013809;28;19930;-70
2021/03/20 08:26:56;;;;;;;;;;;7.50;45.40;;;;;;5013248;28;19926;-71
2021/03/20 08:29:30;;;;;;;;;;;7.70;45.10;;;;;;5025460;28;19932;-71
2021/03/20 08:32:07;;;;;;;;;;;7.80;45.30;;;;;;5033676;28;19979;-68
2021/03/20 08:34:41;;;;;;;;;;;7.90;45.60;;;;;;4994506;28;20341;-69
2021/03/20 08:37:20;;;;;;;;;;;7.90;44.20;;;;;;5008173;28;19932;-68
2021/03/20 08:39:54;;;;;;;;;;;8.10;44.50;;;;;;5029505;28;19930;-69
2021/03/20 08:42:28;;;;;;;;;;;8.40;44.00;;;;;;5013733;28;19944;-69
2021/03/20 08:45:10;;;;;;;;;;;8.50;42.70;;;;;;5013285;28;20251;-68
2021/03/20 08:47:57;;;;;;;;;;;8.30;41.60;;;;;;5011291;28;19995;-69
2021/03/20 08:50:28;;;;;;;;;;;8.20;41.80;;;;;;5007903;28;19932;-70
2021/03/20 08:52:59;;;;;;;;;;;8.10;42.10;;;;;;5012744;28;19925;-70
2021/03/20 08:55:59;;;;;;;;;;;8.10;40.70;;;;;;5013608;28;20016;-70
2021/03/20 08:58:30;;;;;;;;;;;7.90;39.60;;;;;;5007573;28;19952;-69
2021/03/20 09:00:59;;;;;;;;;;;7.60;39.40;;;;;;5012671;28;19929;-69
2021/03/20 09:03:30;;;;;;;;;;;7.40;40.10;;;;;;5012512;28;19948;-71
2021/03/20 09:05:59;;;;;;;;;;;7.40;39.80;;;;;;5012494;28;19929;-70
2021/03/20 09:08:28;;;;;;;;;;;7.40;39.70;;;;;;5012319;28;19926;-71
2021/03/20 09:10:57;;;;;;;;;;;7.20;39.50;;;;;;5013256;28;19998;-71
2021/03/20 09:13:26;;;;;;;;;;;7.10;40.50;;;;;;5010923;28;19971;-70
2021/03/20 09:15:58;;;;;;;;;;;7.20;40.60;;;;;;5026817;28;20544;-70
2021/03/20 09:18:26;;;;;;;;;;;7.30;40.60;;;;;;5020396;28;19925;-70
2021/03/20 09:20:55;;;;;;;;;;;7.30;40.00;;;;;;5013011;28;19972;-70
2021/03/20 09:23:25;;;;;;;;;;;7.40;39.80;;;;;;5012907;28;19925;-70
2021/03/20 09:25:53;;;;;;;;;;;7.40;39.70;;;;;;5012980;28;19926;-70
2021/03/20 09:28:28;;;;;;;;;;;7.50;40.10;;;;;;5013134;28;20016;-71
2021/03/20 09:30:57;;;;;;;;;;;7.50;40.30;;;;;;5012939;28;20318;-71
2021/03/20 09:33:33;;;;;;;;;;;7.70;41.00;;;;;;5012985;28;20385;-71
2021/03/20 09:36:00;;;;;;;;;;;7.80;40.80;;;;;;5003623;28;19930;-71
2021/03/20 09:38:43;;;;;;;;;;;7.80;39.60;;;;;;5029006;28;19929;-70
2021/03/20 09:41:29;;;;;;;;;;;7.80;38.90;;;;;;5028915;28;19979;-70
2021/03/20 09:44:08;;;;;;;;;;;7.90;38.70;;;;;;5013004;28;20286;-71
2021/03/20 09:46:52;;;;;;;;;;;8.10;37.90;;;;;;5012493;28;19926;-70
2021/03/20 09:49:37;;;;;;;;;;;8.30;37.90;;;;;;5012712;28;19929;-70
2021/03/20 09:52:06;;;;;;;;;;;8.40;37.00;;;;;;5012214;28;20378;-71
2021/03/20 09:54:40;;;;;;;;;;;8.50;35.40;;;;;;5013033;28;19926;-71
2021/03/20 09:57:26;;;;;;;;;;;8.60;34.40;;;;;;5010437;28;20361;-71
2021/03/20 09:59:53;;;;;;;;;;;8.60;32.60;;;;;;5011361;28;19926;-71
2021/03/20 10:02:33;;;;;;;;;;;8.50;31.30;;;;;;5015455;28;20298;-70
2021/03/20 10:05:00;;;;;;;;;;;8.50;31.40;;;;;;5000957;28;19984;-70
2021/03/20 10:07:32;;;;;;;;;;;8.40;31.30;;;;;;5017453;28;20327;-71
2021/03/20 10:10:00;;;;;;;;;;;8.50;31.60;;;;;;5012655;28;19932;-71
2021/03/20 10:12:28;;;;;;;;;;;8.50;31.30;;;;;;5012371;28;19948;-70
2021/03/20 10:15:14;;;;;;;;;;;8.60;31.60;;;;;;5012162;28;19926;-71
2021/03/20 10:17:57;;;;;;;;;;;8.70;31.90;;;;;;5012678;28;20005;-70
2021/03/20 10:20:25;;;;;;;;;;;8.80;32.40;;;;;;5012260;28;19933;-69
2021/03/20 10:22:55;;;;;;;;;;;9.00;32.20;;;;;;5012150;28;19929;-69
2021/03/20 10:25:22;;;;;;;;;;;9.20;32.10;;;;;;5011756;28;19929;-70
2021/03/20 10:27:50;;;;;;;;;;;9.40;31.90;;;;;;5012469;28;19972;-69
2021/03/20 10:30:18;;;;;;;;;;;9.50;30.40;;;;;;5013643;28;19926;-69
2021/03/20 10:32:55;;;;;;;;;;;9.50;30.60;;;;;;5014445;28;19932;-68
2021/03/20 10:35:21;;;;;;;;;;;9.40;30.50;;;;;;5008222;28;19925;-68
2021/03/20 10:37:48;;;;;;;;;;;9.30;30.40;;;;;;5015571;28;19925;-69
2021/03/20 10:40:22;;;;;;;;;;;9.20;30.70;;;;;;5018747;28;19925;-69
2021/03/20 10:42:49;;;;;;;;;;;9.30;31.30;;;;;;5015720;28;20032;-69
2021/03/20 10:45:18;;;;;;;;;;;9.50;32.30;;;;;;5015608;28;19926;-69
2021/03/20 10:47:45;;;;;;;;;;;9.70;31.50;;;;;;5015617;28;20323;-69
2021/03/20 10:50:22;;;;;;;;;;;10.00;30.70;;;;;;5015737;28;19925;-69
2021/03/20 10:52:51;;;;;;;;;;;10.10;29.30;;;;;;5015370;28;19925;-69
2021/03/20 10:55:20;;;;;;;;;;;10.30;29.80;;;;;;5016099;28;20024;-69
2021/03/20 10:57:46;;;;;;;;;;;10.60;29.10;;;;;;5015607;28;19925;-69
2021/03/20 11:00:23;;;;;;;;;;;11.00;29.30;;;;;;5012978;28;19929;-72
2021/03/20 11:02:50;;;;;;;;;;;11.50;28.10;;;;;;5014814;28;20382;-71
2021/03/20 11:05:32;;;;;;;;;;;12.20;27.60;;;;;;5015156;28;19929;-71
2021/03/20 11:07:59;;;;;;;;;;;12.90;27.30;;;;;;5016408;28;19979;-71
2021/03/20 11:10:30;;;;;;;;;;;13.50;27.20;;;;;;5014874;28;19932;-71
2021/03/20 11:13:00;;;;;;;;;;;14.00;26.10;;;;;;5015224;28;20011;-71
2021/03/20 11:15:28;;;;;;;;;;;14.70;26.20;;;;;;5014880;28;19926;-70
2021/03/20 11:17:56;;;;;;;;;;;15.30;25.50;;;;;;5015297;28;19926;-70
2021/03/20 11:20:24;;;;;;;;;;;16.00;25.10;;;;;;5014794;28;19948;-69
2021/03/20 11:22:50;;;;;;;;;;;16.30;24.00;;;;;;5014361;28;19925;-69
2021/03/20 11:25:19;;;;;;;;;;;16.60;23.50;;;;;;5014934;28;19939;-69
2021/03/20 11:27:57;;;;;;;;;;;17.20;22.90;;;;;;5012462;28;20386;-69
2021/03/20 11:30:27;;;;;;;;;;;18.30;22.50;;;;;;5014944;28;19926;-70
2021/03/20 11:32:53;;;;;;;;;;;19.30;21.40;;;;;;5014611;28;20288;-69
2021/03/20 11:35:23;;;;;;;;;;;20.40;21.20;;;;;;5014187;28;19936;-69
2021/03/20 11:37:50;;;;;;;;;;;21.90;20.50;;;;;;5024773;28;19925;-70
2021/03/20 11:40:25;;;;;;;;;;;23.30;19.60;;;;;;5025031;28;19926;-70
2021/03/20 11:42:53;;;;;;;;;;;24.30;18.40;;;;;;5014565;28;19996;-71
2021/03/20 11:45:24;;;;;;;;;;;25.30;18.70;;;;;;5014183;28;19932;-71
2021/03/20 11:47:50;;;;;;;;;;;25.00;17.50;;;;;;5014328;28;19926;-69
2021/03/20 11:50:18;;;;;;;;;;;22.60;17.40;;;;;;5014583;28;19930;-70
2021/03/20 11:52:47;;;;;;;;;;;19.90;18.30;;;;;;5012177;28;20012;-70
2021/03/20 11:55:16;;;;;;;;;;;17.70;19.10;;;;;;5013301;28;19926;-70
2021/03/20 11:57:43;;;;;;;;;;;16.10;20.20;;;;;;5013803;28;19951;-70
2021/03/20 12:00:30;;;;;;;;;;;14.70;21.40;;;;;;5014322;28;19995;-72
2021/03/20 12:02:57;;;;;;;;;;;13.70;22.30;;;;;;5008089;28;19933;-70
2021/03/20 12:05:25;;;;;;;;;;;12.80;23.40;;;;;;5013941;28;19933;-70
2021/03/20 12:07:52;;;;;;;;;;;12.20;24.30;;;;;;5024511;28;20009;-70
2021/03/20 12:10:20;;;;;;;;;;;11.70;25.10;;;;;;5012640;28;19925;-70
2021/03/20 12:12:48;;;;;;;;;;;11.50;25.40;;;;;;5012641;28;20286;-70
2021/03/20 12:15:26;;;;;;;;;;;11.20;26.00;;;;;;5013105;28;20386;-70
2021/03/20 12:17:54;;;;;;;;;;;10.90;26.40;;;;;;5005039;28;19976;-71
2021/03/20 12:20:27;;;;;;;;;;;10.80;26.90;;;;;;5008756;28;19929;-70
2021/03/20 12:22:54;;;;;;;;;;;10.80;27.40;;;;;;5013444;28;19933;-70
2021/03/20 12:25:23;;;;;;;;;;;10.70;27.40;;;;;;5014056;28;20028;-70
2021/03/20 12:27:50;;;;;;;;;;;10.60;27.50;;;;;;5012201;28;19949;-70
2021/03/20 12:30:18;;;;;;;;;;;10.90;27.70;;;;;;5012077;28;19948;-70
2021/03/20 12:32:45;;;;;;;;;;;11.00;27.60;;;;;;5012635;28;19972;-70
2021/03/20 12:35:30;;;;;;;;;;;11.00;27.70;;;;;;5012803;28;19932;-70
2021/03/20 12:38:26;;;;;;;;;;;11.00;27.70;;;;;;5015804;28;19930;-70
2021/03/20 12:40:55;;;;;;;;;;;11.00;27.70;;;;;;4952921;29;20387;-70
2021/03/20 12:43:28;;;;;;;;;;;10.80;27.60;;;;;;4999555;28;21476;-70
2021/03/20 12:45:55;;;;;;;;;;;10.50;27.50;;;;;;5012006;28;20323;-69
2021/03/20 12:48:21;;;;;;;;;;;10.20;27.70;;;;;;5011828;28;19930;-70
2021/03/20 12:50:48;;;;;;;;;;;10.10;28.00;;;;;;5013386;28;19933;-70
2021/03/20 12:53:14;;;;;;;;;;;10.10;28.10;;;;;;5012266;28;19929;-69
2021/03/20 12:55:41;;;;;;;;;;;10.10;28.00;;;;;;5013459;28;20325;-69
2021/03/20 12:58:08;;;;;;;;;;;10.00;27.90;;;;;;5012924;28;19934;-69
2021/03/20 13:00:34;;;;;;;;;;;10.00;28.00;;;;;;5013314;28;19925;-70
2021/03/20 13:03:00;;;;;;;;;;;9.90;28.90;;;;;;5012990;28;20440;-69
2021/03/20 13:05:28;;;;;;;;;;;9.90;29.10;;;;;;5012437;28;19925;-70
2021/03/20 13:07:55;;;;;;;;;;;9.90;29.10;;;;;;5013029;28;19925;-70
2021/03/20 13:10:21;;;;;;;;;;;9.90;29.30;;;;;;5012993;28;19925;-70
2021/03/20 13:12:47;;;;;;;;;;;10.00;28.80;;;;;;5011177;28;19933;-70
2021/03/20 13:15:15;;;;;;;;;;;10.10;28.80;;;;;;5012763;28;19935;-70
2021/03/20 13:17:41;;;;;;;;;;;10.10;28.80;;;;;;5012641;28;20337;-69
2021/03/20 13:20:08;;;;;;;;;;;10.20;28.90;;;;;;5012597;28;19925;-69
2021/03/20 13:22:35;;;;;;;;;;;10.20;28.90;;;;;;5012408;28;19960;-69
2021/03/20 13:25:01;;;;;;;;;;;10.30;29.00;;;;;;5012852;28;19930;-70
2021/03/20 13:27:27;;;;;;;;;;;10.40;28.70;;;;;;5012584;28;19933;-69
2021/03/20 13:29:54;;;;;;;;;;;10.40;28.60;;;;;;5012471;28;19929;-69
2021/03/20 13:32:21;;;;;;;;;;;10.40;28.70;;;;;;5012924;28;20001;-69
2021/03/20 13:34:47;;;;;;;;;;;10.40;28.80;;;;;;5012516;28;20314;-69
2021/03/20 13:37:14;;;;;;;;;;;10.40;28.80;;;;;;5018303;28;19979;-69
2021/03/20 13:39:41;;;;;;;;;;;10.40;28.40;;;;;;5012375;28;20076;-69
2021/03/20 13:42:07;;;;;;;;;;;10.20;28.60;;;;;;5020353;28;19979;-69
2021/03/20 13:44:34;;;;;;;;;;;10.00;28.80;;;;;;5016326;28;19933;-70
2021/03/20 13:47:00;;;;;;;;;;;10.00;29.10;;;;;;5012038;28;19933;-70
2021/03/20 13:49:28;;;;;;;;;;;10.10;29.10;;;;;;5012399;28;20289;-70
2021/03/20 13:51:54;;;;;;;;;;;10.10;29.10;;;;;;5011198;28;19953;-70
2021/03/20 13:54:20;;;;;;;;;;;10.10;28.90;;;;;;5011855;28;19933;-70
2021/03/20 13:56:46;;;;;;;;;;;10.30;28.70;;;;;;5012286;28;19929;-70
2021/03/20 13:59:13;;;;;;;;;;;10.40;28.40;;;;;;5012499;28;19930;-70
2021/03/20 14:01:39;;;;;;;;;;;10.50;28.10;;;;;;5009293;28;19934;-70
2021/03/20 14:04:05;;;;;;;;;;;10.60;28.30;;;;;;5011752;28;19930;-70
2021/03/20 14:06:33;;;;;;;;;;;10.80;28.30;;;;;;5012825;28;19979;-70
2021/03/20 14:08:59;;;;;;;;;;;10.80;27.90;;;;;;5017649;28;19933;-70
2021/03/20 14:11:25;;;;;;;;;;;10.90;28.20;;;;;;5016704;28;19952;-70
2021/03/20 14:13:51;;;;;;;;;;;11.00;28.20;;;;;;5016356;28;19933;-71
2021/03/20 14:16:18;;;;;;;;;;;11.20;28.20;;;;;;5016387;28;19925;-71
2021/03/20 14:18:44;;;;;;;;;;;11.30;27.60;;;;;;5016437;28;19953;-70
2021/03/20 14:21:13;;;;;;;;;;;11.30;27.50;;;;;;5016212;28;19933;-70
2021/03/20 14:23:41;;;;;;;;;;;11.20;27.30;;;;;;5016043;28;19987;-70
2021/03/20 14:26:07;;;;;;;;;;;11.10;27.60;;;;;;5016013;28;19948;-70
2021/03/20 14:28:34;;;;;;;;;;;11.00;27.80;;;;;;5015898;28;19925;-70
2021/03/20 14:31:01;;;;;;;;;;;11.00;27.70;;;;;;5015915;28;20306;-70
2021/03/20 14:33:29;;;;;;;;;;;11.10;27.70;;;;;;5014243;28;19933;-70
2021/03/20 14:35:57;;;;;;;;;;;11.20;27.40;;;;;;5016188;28;19926;-70
2021/03/20 14:38:25;;;;;;;;;;;11.20;27.30;;;;;;5030372;28;19952;-70
2021/03/20 14:40:53;;;;;;;;;;;11.10;27.00;;;;;;5035683;28;20329;-70
2021/03/20 14:43:20;;;;;;;;;;;11.10;27.00;;;;;;5035538;28;20270;-70